Time;durP1;ratioP1;P1;durP2;ratioP2;P2;SDS_P1;SDS_P2;PMS_P1;PMS_P2;Temp;Humidity;BMP_temperature;BMP_pressure;BME280_temperature;BME280_humidity;BME280_pressure;Samples;Min_cycle;Max_cycle;Signal;HPM_P1;HPM_P2
2022/05/02 00:00:00;;;;;;;3.83;3.00;;;;;;;13.05;85.15;94577.41;5074659;28;20197;-59
2022/05/02 00:02:25;;;;;;;4.40;3.20;;;;;;;13.06;85.67;94583.31;5075124;28;20213;-59
2022/05/02 00:04:51;;;;;;;3.90;3.57;;;;;;;13.16;82.99;94604.44;5074959;28;20181;-64
2022/05/02 00:07:17;;;;;;;5.75;3.85;;;;;;;13.18;84.89;94582.13;5056877;28;20212;-65
2022/05/02 00:09:43;;;;;;;5.70;4.40;;;;;;;13.14;84.66;94581.63;5074968;28;20215;-60
2022/05/02 00:12:09;;;;;;;4.60;4.00;;;;;;;13.14;84.76;94583.38;5075034;28;20205;-66
2022/05/02 00:14:34;;;;;;;3.87;3.47;;;;;;;13.19;84.02;94594.75;5074430;28;20180;-61
2022/05/02 00:17:00;;;;;;;3.83;3.43;;;;;;;13.32;82.62;94612.25;5074746;28;20254;-59
2022/05/02 00:19:25;;;;;;;7.43;3.60;;;;;;;13.37;82.88;94615.94;5074477;28;20262;-62
2022/05/02 00:21:51;;;;;;;3.73;3.37;;;;;;;13.27;82.78;94601.69;5074676;28;20319;-59
2022/05/02 00:24:16;;;;;;;5.47;3.50;;;;;;;13.19;81.05;94625.38;5056968;28;20184;-63
2022/05/02 00:26:42;;;;;;;4.23;3.83;;;;;;;13.07;83.22;94595.13;5081831;22;21328;-65
2022/05/02 00:29:08;;;;;;;5.37;4.13;;;;;;;12.99;83.31;94587.38;5074299;28;20236;-60
2022/05/02 00:31:34;;;;;;;4.37;3.90;;;;;;;13.04;81.88;94603.88;5074374;28;20240;-59
2022/05/02 00:33:59;;;;;;;5.77;4.23;;;;;;;12.77;84.30;94578.38;5074443;28;20200;-58
2022/05/02 00:36:25;;;;;;;6.73;3.97;;;;;;;12.90;82.86;94601.81;5074412;28;20731;-62
2022/05/02 00:38:51;;;;;;;4.50;3.87;;;;;;;12.90;82.87;94599.25;5073952;28;20189;-62
2022/05/02 00:41:18;;;;;;;5.43;4.07;;;;;;;12.73;84.20;94571.97;5074103;28;20230;-59
2022/05/02 00:43:43;;;;;;;6.77;4.10;;;;;;;12.84;84.40;94583.72;5074093;28;20751;-58
2022/05/02 00:46:24;;;;;;;5.80;4.00;;;;;;;12.88;83.95;94585.03;5073969;28;20256;-64
2022/05/02 00:48:50;;;;;;;3.93;3.53;;;;;;;12.90;84.18;94585.69;5073902;28;20299;-60
2022/05/02 00:51:16;;;;;;;5.30;3.80;;;;;;;12.92;84.43;94581.22;5074012;28;20174;-64
2022/05/02 00:53:43;;;;;;;4.80;3.97;;;;;;;12.89;84.49;94582.31;5073766;28;20185;-62
2022/05/02 00:56:09;;;;;;;3.70;3.30;;;;;;;12.77;83.83;94570.72;5073606;28;20192;-62
2022/05/02 00:58:36;;;;;;;4.47;3.47;;;;;;;12.99;84.41;94572.84;5073549;28;20209;-64
2022/05/02 01:01:03;;;;;;;5.93;4.18;;;;;;;12.85;83.69;94564.88;5073821;28;20184;-65
2022/05/02 01:03:29;;;;;;;6.00;3.43;;;;;;;12.98;84.22;94570.44;5073404;28;20213;-58
2022/05/02 01:08:40;;;;;;;4.63;3.67;;;;;;;13.05;84.10;94562.09;5057315;28;20223;-61
2022/05/02 01:11:05;;;;;;;4.30;3.40;;;;;;;12.94;85.24;94549.53;5073485;28;20169;-61
2022/05/02 01:13:44;;;;;;;4.13;3.70;;;;;;;12.92;84.86;94541.22;5073382;28;20205;-62
2022/05/02 01:16:14;;;;;;;3.53;3.10;;;;;;;12.99;83.28;94572.84;5073361;28;20189;-61
2022/05/02 01:18:40;;;;;;;3.70;3.17;;;;;;;12.96;82.20;94583.34;5073495;28;20199;-59
2022/05/02 01:21:08;;;;;;;5.30;3.80;;;;;;;12.99;83.53;94557.53;5073451;28;20177;-59
2022/05/02 01:23:34;;;;;;;4.40;3.70;;;;;;;13.19;84.01;94553.91;5073087;28;20690;-63
2022/05/02 01:25:59;;;;;;;3.83;3.07;;;;;;;13.21;81.98;94571.66;5055361;28;20592;-65
2022/05/02 01:28:24;;;;;;;6.90;3.80;;;;;;;12.96;84.24;94537.44;5073414;28;20255;-60
2022/05/02 01:30:50;;;;;;;6.10;3.43;;;;;;;13.09;83.80;94554.97;5072837;28;20188;-59
2022/05/02 01:33:15;;;;;;;4.27;2.77;;;;;;;12.94;84.38;94531.66;5072942;28;20208;-58
2022/05/02 01:35:41;;;;;;;7.63;2.87;;;;;;;13.00;84.48;94536.19;5072796;28;20180;-63
2022/05/02 01:38:06;;;;;;;3.47;3.00;;;;;;;13.03;83.20;94546.09;5073000;28;20291;-61
2022/05/02 01:40:31;;;;;;;3.17;2.65;;;;;;;13.08;82.82;94549.03;5073170;28;20187;-60
2022/05/02 01:42:57;;;;;;;3.47;2.72;;;;;;;12.81;83.40;94527.88;5073235;28;20205;-60
2022/05/02 01:45:22;;;;;;;3.30;3.00;;;;;;;12.95;83.74;94524.81;5072923;28;20192;-60
2022/05/02 01:47:48;;;;;;;4.90;2.77;;;;;;;12.98;83.66;94522.78;5073332;28;20315;-61
2022/05/02 01:50:13;;;;;;;3.83;2.70;;;;;;;12.84;83.50;94530.13;5072803;28;20184;-59
2022/05/02 01:52:39;;;;;;;3.83;2.63;;;;;;;12.85;84.20;94509.56;5073098;28;20197;-61
2022/05/02 01:55:05;;;;;;;3.33;2.88;;;;;;;12.79;84.83;94504.25;5054873;28;20189;-60
2022/05/02 01:57:30;;;;;;;5.00;2.93;;;;;;;12.81;84.13;94510.81;5072834;28;20735;-61
2022/05/02 01:59:56;;;;;;;3.50;3.03;;;;;;;12.82;84.47;94509.88;5072556;28;20177;-63
2022/05/02 02:02:22;;;;;;;3.67;2.73;;;;;;;12.72;84.64;94509.16;5072968;28;20205;-59
2022/05/02 02:07:31;;;;;;;3.77;2.70;;;;;;;12.66;84.97;94499.53;5072906;28;20584;-58
2022/05/02 02:09:56;;;;;;;4.23;3.23;;;;;;;12.61;86.69;94482.13;5054696;28;20264;-59
2022/05/02 02:12:22;;;;;;;2.80;2.60;;;;;;;12.68;85.79;94492.53;5072766;28;20270;-60
2022/05/02 02:14:47;;;;;;;3.73;2.73;;;;;;;12.81;84.17;94518.47;5072351;28;20180;-58
2022/05/02 02:17:12;;;;;;;3.77;3.47;;;;;;;12.63;85.59;94490.44;5072636;28;20196;-63
2022/05/02 02:19:38;;;;;;;5.37;3.57;;;;;;;12.71;86.13;94473.56;5072129;28;20219;-63
2022/05/02 02:22:16;;;;;;;4.03;3.07;;;;;;;12.89;84.68;94499.91;5072166;28;20200;-61
2022/05/02 02:24:45;;;;;;;4.20;3.40;;;;;;;12.69;86.23;94468.63;5072320;28;20617;-59
2022/05/02 02:27:11;;;;;;;3.67;3.30;;;;;;;12.83;84.00;94496.16;5054030;28;20209;-60
2022/05/02 02:29:36;;;;;;;3.93;3.47;;;;;;;12.82;85.28;94484.38;5072647;28;20230;-59
2022/05/02 02:32:02;;;;;;;3.77;3.37;;;;;;;12.83;86.08;94465.56;5072391;28;20232;-58
2022/05/02 02:34:27;;;;;;;5.80;3.77;;;;;;;12.91;84.79;94487.78;5072147;28;20219;-63
2022/05/02 02:36:52;;;;;;;9.67;3.70;;;;;;;12.86;85.10;94480.59;5072325;28;20201;-59
2022/05/02 02:39:18;;;;;;;4.83;3.70;;;;;;;12.56;86.37;94456.25;5054298;28;20181;-59
2022/05/02 02:41:43;;;;;;;4.67;3.97;;;;;;;12.73;85.62;94457.19;5072218;28;20192;-62
2022/05/02 02:44:08;;;;;;;5.20;3.97;;;;;;;12.43;87.92;94437.16;5071992;28;20184;-61
2022/05/02 02:46:34;;;;;;;4.43;3.73;;;;;;;12.58;86.53;94456.13;5072194;28;20216;-61
2022/05/02 02:48:59;;;;;;;4.27;3.87;;;;;;;12.56;86.66;94452.91;5072014;28;20369;-60
2022/05/02 02:51:25;;;;;;;4.57;3.77;;;;;;;12.37;87.50;94443.66;5072004;28;20196;-61
2022/05/02 02:53:51;;;;;;;3.83;3.53;;;;;;;12.42;87.50;94449.09;5071936;28;20250;-61
2022/05/02 02:56:17;;;;;;;4.53;4.13;;;;;;;12.35;88.54;94447.28;5071957;28;20204;-62
2022/05/02 02:58:43;;;;;;;4.93;4.43;;;;;;;12.14;89.72;94429.72;5072122;28;20250;-62
2022/05/02 03:01:08;;;;;;;6.77;4.83;;;;;;;12.19;89.46;94436.94;5071758;28;20252;-63
2022/05/02 03:03:34;;;;;;;5.23;4.27;;;;;;;12.12;89.60;94443.59;5071736;28;20283;-62
2022/05/02 03:06:02;;;;;;;5.60;4.40;;;;;;;12.03;89.26;94429.97;5071727;28;20176;-58
2022/05/02 03:08:29;;;;;;;5.23;3.67;;;;;;;11.95;90.51;94426.53;5071430;28;20208;-64
2022/05/02 03:10:55;;;;;;;4.93;3.90;;;;;;;11.92;90.96;94424.28;5053883;28;20197;-59
2022/05/02 03:13:21;;;;;;;4.30;3.90;;;;;;;12.05;89.33;94442.53;5071511;28;20259;-63
2022/05/02 03:15:47;;;;;;;4.17;3.77;;;;;;;12.05;89.31;94437.44;5071439;28;20181;-61
2022/05/02 03:18:13;;;;;;;4.50;3.60;;;;;;;11.90;90.93;94418.53;5071428;28;20213;-59
2022/05/02 03:20:38;;;;;;;4.40;3.80;;;;;;;12.08;90.44;94422.66;5071645;28;20183;-60
2022/05/02 03:23:04;;;;;;;4.10;3.77;;;;;;;12.03;90.03;94434.25;5071734;28;20248;-62
2022/05/02 03:25:29;;;;;;;4.20;3.80;;;;;;;11.90;90.64;94433.81;5079236;22;20259;-58
2022/05/02 03:27:55;;;;;;;5.67;3.90;;;;;;;11.94;90.90;94432.56;5071600;28;20204;-63
2022/05/02 03:30:21;;;;;;;6.17;4.20;;;;;;;11.74;91.48;94431.84;5072715;28;20189;-59
2022/05/02 03:32:47;;;;;;;5.97;4.13;;;;;;;11.86;90.45;94440.91;5075182;28;20204;-63
2022/05/02 03:35:13;;;;;;;6.43;4.37;;;;;;;11.77;91.36;94434.94;5057518;28;20189;-59
2022/05/02 03:37:38;;;;;;;4.20;3.80;;;;;;;11.94;90.33;94442.75;5075321;28;20193;-59
2022/05/02 03:40:05;;;;;;;4.53;4.10;;;;;;;11.75;91.88;94433.47;5075823;28;20200;-63
2022/05/02 03:42:30;;;;;;;6.47;4.27;;;;;;;11.77;91.33;94440.03;5057146;28;20714;-61
2022/05/02 03:44:56;;;;;;;4.87;4.07;;;;;;;11.91;90.86;94441.28;5057460;28;20671;-60
2022/05/02 03:47:21;;;;;;;9.43;4.33;;;;;;;11.69;91.41;94436.59;5074909;28;20201;-59
2022/05/02 03:49:47;;;;;;;6.80;4.03;;;;;;;11.63;92.16;94437.94;5075109;28;20194;-60
2022/05/02 03:52:12;;;;;;;3.90;3.60;;;;;;;11.72;91.49;94446.47;5074859;28;20200;-62
2022/05/02 03:54:38;;;;;;;4.67;4.00;;;;;;;11.73;90.86;94453.19;5075202;28;20255;-62
2022/05/02 03:57:03;;;;;;;4.90;4.07;;;;;;;11.57;91.29;94445.31;5074799;28;20205;-60
2022/05/02 03:59:29;;;;;;;8.10;4.13;;;;;;;11.56;91.21;94447.06;5075121;28;20261;-60
2022/05/02 04:01:54;;;;;;;6.00;3.67;;;;;;;11.66;91.06;94458.03;5074760;28;20208;-60
2022/05/02 04:04:20;;;;;;;7.67;4.33;;;;;;;11.59;92.47;94449.34;5057232;28;20185;-60
2022/05/02 04:06:47;;;;;;;8.13;4.27;;;;;;;11.55;92.65;94449.75;5056792;28;20557;-59
2022/05/02 04:09:12;;;;;;;5.87;3.63;;;;;;;11.51;92.56;94446.66;5074877;28;20270;-59
2022/05/02 04:11:38;;;;;;;6.93;4.00;;;;;;;11.59;91.38;94459.53;5074498;28;20193;-58
2022/05/02 04:14:04;;;;;;;6.37;4.03;;;;;;;11.48;92.36;94453.78;5056800;28;20192;-59
2022/05/02 04:16:29;;;;;;;5.87;3.70;;;;;;;11.40;92.46;94451.97;5074497;28;20180;-61
2022/05/02 04:18:55;;;;;;;5.93;4.07;;;;;;;11.53;91.54;94456.75;5074763;28;20187;-60
2022/05/02 04:21:20;;;;;;;4.13;3.37;;;;;;;11.66;88.96;94487.78;5074323;28;20238;-58
2022/05/02 04:23:46;;;;;;;7.40;3.60;;;;;;;11.56;89.50;94476.81;5074447;28;20551;-59
2022/05/02 04:26:11;;;;;;;6.93;3.37;;;;;;;11.64;90.91;94461.63;5075043;28;20181;-60
2022/05/02 04:28:36;;;;;;;7.10;3.60;;;;;;;11.78;90.91;94467.09;5074341;28;20694;-59
2022/05/02 04:31:02;;;;;;;5.70;3.83;;;;;;;11.79;90.48;94467.91;5074368;28;20172;-63
2022/05/02 04:33:27;;;;;;;5.30;3.57;;;;;;;11.97;89.25;94481.47;5074107;28;20224;-59
2022/05/02 04:35:53;;;;;;;3.77;3.10;;;;;;;12.11;87.99;94488.66;5074675;28;20181;-58
2022/05/02 04:38:19;;;;;;;5.43;3.20;;;;;;;12.17;87.28;94494.91;5074358;28;20670;-60
2022/05/02 04:40:44;;;;;;;4.27;3.40;;;;;;;12.34;86.39;94497.47;5074246;28;20189;-59
2022/05/02 04:43:10;;;;;;;5.50;3.07;;;;;;;12.36;85.86;94505.78;5074068;28;20189;-63
2022/05/02 04:45:35;;;;;;;4.30;3.17;;;;;;;12.25;86.44;94484.78;5074417;28;20188;-61
2022/05/02 04:48:01;;;;;;;6.67;3.60;;;;;;;12.32;86.76;94496.03;5073874;28;20229;-59
2022/05/02 04:50:27;;;;;;;6.57;3.33;;;;;;;12.49;85.12;94515.63;5074410;28;20693;-63
2022/05/02 04:52:53;;;;;;;7.93;3.40;;;;;;;12.51;85.31;94512.00;5073613;28;20276;-62
2022/05/02 04:55:18;;;;;;;6.60;3.13;;;;;;;12.46;84.56;94510.84;5056017;28;20305;-58
2022/05/02 04:57:44;;;;;;;4.27;3.43;;;;;;;12.56;83.97;94511.56;5073728;28;20684;-60
2022/05/02 05:00:10;;;;;;;7.60;3.17;;;;;;;12.37;84.88;94497.19;5074043;28;20222;-59
2022/05/02 05:02:36;;;;;;;4.77;3.00;;;;;;;12.50;84.35;94495.06;5073790;28;20212;-59
2022/05/02 05:05:01;;;;;;;8.60;3.93;;;;;;;12.62;84.57;94503.34;5055578;28;20181;-60
2022/05/02 05:07:27;;;;;;;8.80;3.97;;;;;;;12.50;83.01;94519.78;5073226;28;20211;-58
2022/05/02 05:09:52;;;;;;;8.80;3.80;;;;;;;12.56;84.25;94489.41;5073624;28;20181;-59
2022/05/02 05:12:42;;;;;;;5.90;3.23;;;;;;;12.61;83.19;94506.81;5073549;28;20197;-60
2022/05/02 05:19:02;;;;;;;5.27;3.73;;;;;;;12.17;85.37;94467.69;4992037;28;20170;-63
2022/05/02 05:22:03;;;;;;;5.30;3.93;;;;;;;12.22;86.77;94451.97;5073258;28;20189;-60
2022/05/02 05:25:03;;;;;;;7.63;4.80;;;;;;;12.04;85.09;94461.34;5073253;28;20193;-63
2022/05/02 05:28:05;;;;;;;8.37;4.40;;;;;;;12.15;84.98;94468.75;5073080;28;20610;-62
2022/05/02 05:30:40;;;;;;;5.80;4.20;;;;;;;12.65;100.00;94434.16;5073374;28;20185;-60
2022/05/02 05:33:27;;;;;;;9.23;4.47;;;;;;;12.64;94.75;94441.00;5073076;28;20220;-61
2022/05/02 05:36:30;;;;;;;7.03;3.80;;;;;;;13.44;100.00;94448.44;5073386;28;20181;-61
2022/05/02 05:39:01;;;;;;;4.57;3.53;;;;;;;14.45;100.00;94449.25;5073026;28;20191;-61
2022/05/02 05:41:35;;;;;;;4.90;3.77;;;;;;;15.17;100.00;94451.03;5055227;28;20181;-61
2022/05/02 05:44:18;;;;;;;4.25;3.42;;;;;;;16.01;100.00;94457.19;5073069;28;20295;-60
2022/05/02 05:47:08;;;;;;;6.47;3.05;;;;;;;16.61;100.00;94483.81;5072858;28;20761;-60
2022/05/02 05:49:42;;;;;;;6.40;3.95;;;;;;;16.49;85.78;94690.50;5073058;28;20209;-61
2022/05/02 05:52:12;;;;;;;4.72;3.58;;;;;;;15.56;86.29;94592.84;5072415;28;20242;-62
2022/05/02 05:54:43;;;;;;;9.00;4.50;;;;;;;15.09;81.18;94567.84;5072768;28;20177;-61
2022/05/02 05:57:31;;;;;;;7.68;3.88;;;;;;;14.57;84.01;94522.97;5072959;28;20201;-60
2022/05/02 06:00:02;;;;;;;4.53;4.10;;;;;;;13.95;84.66;94506.31;5073187;28;20714;-63
2022/05/02 06:02:50;;;;;;;3.88;3.28;;;;;;;13.34;86.18;94490.34;5073082;28;20208;-64
2022/05/02 06:05:17;;;;;;;7.43;4.35;;;;;;;13.48;85.88;94487.22;5072767;28;20571;-60
2022/05/02 06:07:45;;;;;;;6.47;3.73;;;;;;;13.31;88.15;94467.69;5072315;28;20213;-60
2022/05/02 06:10:13;;;;;;;11.10;4.00;;;;;;;13.42;88.13;94467.41;5054511;28;20184;-59
2022/05/02 06:12:41;;;;;;;6.90;3.70;;;;;;;13.41;88.14;94461.50;5072488;28;20304;-61
2022/05/02 06:20:42;;;;;;;8.27;4.63;;;;;;;13.33;85.21;94507.41;5072977;28;20601;-60
2022/05/02 06:23:09;;;;;;;5.10;3.90;;;;;;;13.06;87.97;94468.47;5072294;28;20654;-60
2022/05/02 06:25:37;;;;;;;6.40;3.90;;;;;;;13.16;88.34;94467.44;5072394;28;20204;-60
2022/05/02 06:28:04;;;;;;;8.70;4.20;;;;;;;13.32;87.95;94467.53;5053934;28;20211;-61
2022/05/02 06:30:33;;;;;;;6.47;5.27;;;;;;;13.36;85.09;94517.34;5072487;28;20195;-60
2022/05/02 06:33:02;;;;;;;6.87;4.77;;;;;;;13.35;85.95;94487.63;5072168;28;20197;-64
2022/05/02 06:35:35;;;;;;;6.57;4.97;;;;;;;13.40;85.45;94484.63;5072405;28;20216;-61
2022/05/02 06:38:16;;;;;;;6.63;5.20;;;;;;;13.57;84.91;94488.91;5072033;28;20254;-59
2022/05/02 06:40:52;;;;;;;7.27;4.10;;;;;;;13.43;81.54;94531.09;5072603;28;20185;-59
2022/05/02 06:43:59;;;;;;;7.65;5.63;;;;;;;13.39;83.24;94509.38;5053801;28;20208;-60
2022/05/02 06:46:37;;;;;;;8.70;5.47;;;;;;;13.43;82.06;94518.31;4990517;28;20230;-60
2022/05/02 06:49:04;;;;;;;8.13;6.67;;;;;;;13.53;81.86;94514.88;5065369;28;20232;-63
2022/05/02 06:51:38;;;;;;;8.20;6.27;;;;;;;13.52;81.84;94506.41;5053678;28;20180;-62
2022/05/02 06:54:09;;;;;;;6.93;6.17;;;;;;;13.62;81.17;94519.06;5072088;28;20223;-62
2022/05/02 06:57:02;;;;;;;9.13;7.10;;;;;;;13.75;83.08;94487.06;5071674;28;20213;-61
2022/05/02 06:59:33;;;;;;;10.10;7.03;;;;;;;13.82;84.47;94464.25;5072115;28;20189;-61
2022/05/02 07:02:35;;;;;;;7.90;6.37;;;;;;;14.03;83.32;94462.09;5071590;28;20681;-59
2022/05/02 07:05:06;;;;;;;8.27;6.63;;;;;;;14.00;79.26;94528.84;5053907;28;20257;-63
2022/05/02 07:07:43;;;;;;;6.57;5.97;;;;;;;13.95;81.19;94503.75;5075561;28;20689;-62
2022/05/02 07:10:28;;;;;;;6.13;5.63;;;;;;;13.93;78.72;94541.44;5057917;28;20220;-63
2022/05/02 07:13:00;;;;;;;6.20;5.60;;;;;;;13.95;78.40;94531.06;5075703;28;20198;-62
2022/05/02 07:15:57;;;;;;;7.43;5.80;;;;;;;14.06;83.01;94448.97;5076038;28;20188;-63
2022/05/02 07:19:16;;;;;;;7.23;5.57;;;;;;;14.25;84.26;94423.16;5075475;28;20193;-63
2022/05/02 07:22:01;;;;;;;5.37;4.40;;;;;;;14.50;81.26;94481.09;4994010;28;20211;-65
2022/05/02 07:24:50;;;;;;;6.78;5.30;;;;;;;14.68;80.45;94502.22;5068843;28;20201;-62
2022/05/02 07:27:43;;;;;;;4.82;3.80;;;;;;;14.71;80.24;94496.78;5075257;28;20205;-63
2022/05/02 07:30:09;;;;;;;5.88;4.53;;;;;;;14.75;78.06;94512.59;5075622;28;20628;-63
2022/05/02 07:32:35;;;;;;;5.03;3.92;;;;;;;14.89;77.31;94520.47;5074962;28;20200;-65
2022/05/02 07:35:01;;;;;;;10.13;4.43;;;;;;;14.91;76.85;94541.59;5075494;28;20191;-64
2022/05/02 07:37:31;;;;;;;4.60;4.13;;;;;;;15.08;75.35;94550.09;5075045;28;20201;-62
2022/05/02 07:39:57;;;;;;;6.80;4.00;;;;;;;15.18;76.11;94524.31;5074903;28;20700;-60
2022/05/02 07:42:25;;;;;;;5.82;4.43;;;;;;;15.11;76.05;94527.50;5057391;28;20637;-63
2022/05/02 07:44:54;;;;;;;4.97;3.95;;;;;;;15.29;74.84;94536.81;5075423;28;20565;-60
2022/05/02 07:47:21;;;;;;;6.38;4.93;;;;;;;15.37;74.55;94547.03;5075549;28;20201;-63
2022/05/02 07:49:48;;;;;;;6.43;4.40;;;;;;;15.55;74.56;94533.13;5074878;28;20203;-62
2022/05/02 07:52:23;;;;;;;4.97;4.32;;;;;;;15.47;72.79;94566.44;5075210;28;20204;-59
2022/05/02 07:54:49;;;;;;;5.40;4.90;;;;;;;15.42;72.49;94571.25;5074977;28;20173;-59
2022/05/02 07:57:15;;;;;;;6.78;4.10;;;;;;;15.35;70.16;94608.66;5075398;28;20197;-59
2022/05/02 07:59:43;;;;;;;7.57;4.90;;;;;;;15.34;71.58;94588.34;5075141;28;20181;-61
2022/05/02 08:02:09;;;;;;;8.30;5.28;;;;;;;15.53;71.43;94593.19;5074941;28;20279;-62
2022/05/02 08:04:38;;;;;;;6.68;4.43;;;;;;;15.51;70.37;94608.72;5074494;28;20215;-62
2022/05/02 08:07:09;;;;;;;5.82;5.22;;;;;;;15.42;68.78;94625.03;5074743;28;20197;-63
2022/05/02 08:10:00;;;;;;;5.55;5.05;;;;;;;15.42;71.02;94593.47;5074474;28;20219;-63
2022/05/02 08:12:39;;;;;;;5.95;5.30;;;;;;;15.60;70.76;94596.69;5074435;28;20207;-60
2022/05/02 08:15:12;;;;;;;10.40;5.57;;;;;;;15.50;69.64;94614.78;5056354;28;20216;-61
2022/05/02 08:17:46;;;;;;;9.13;6.57;;;;;;;15.68;71.79;94578.72;5074245;28;20266;-60
2022/05/02 08:20:49;;;;;;;8.38;6.13;;;;;;;15.80;70.27;94600.50;5074527;28;20250;-62
2022/05/02 08:27:15;;;;;;;7.25;6.55;;;;;;;16.33;66.57;94671.72;5074868;28;20219;-63
2022/05/02 08:29:58;;;;;;;6.30;5.70;;;;;;;16.47;65.40;94684.69;5074017;28;20571;-60
2022/05/02 08:32:57;;;;;;;9.02;6.90;;;;;;;16.40;66.33;94657.28;5074494;28;20300;-59
2022/05/02 08:35:25;;;;;;;8.10;5.78;;;;;;;16.18;61.55;94711.84;5074072;28;20183;-63
2022/05/02 08:38:16;;;;;;;7.15;6.35;;;;;;;16.07;61.73;94689.91;5074584;28;20209;-62
2022/05/02 08:41:16;;;;;;;7.03;6.32;;;;;;;15.68;61.69;94683.81;5055917;28;20549;-59
2022/05/02 08:44:19;;;;;;;7.28;6.10;;;;;;;15.73;64.96;94595.25;5073909;28;20648;-59
2022/05/02 08:46:55;;;;;;;10.52;6.88;;;;;;;15.91;63.46;94628.38;5073815;28;20284;-60
2022/05/02 08:49:49;;;;;;;8.68;6.32;;;;;;;15.90;61.79;94660.09;5073571;28;20203;-59
2022/05/02 08:52:40;;;;;;;7.15;6.20;;;;;;;16.14;65.09;94598.50;5052567;28;20294;-59
2022/05/02 08:55:36;;;;;;;8.48;6.07;;;;;;;16.10;60.79;94669.03;5073568;28;20178;-58
2022/05/02 08:58:31;;;;;;;6.68;5.50;;;;;;;16.10;60.41;94663.91;5042035;28;20370;-59
2022/05/02 09:01:30;;;;;;;8.93;6.75;;;;;;;16.15;64.34;94548.81;5042480;28;20663;-59
2022/05/02 09:04:31;;;;;;;5.25;4.75;;;;;;;16.33;59.14;94674.28;5073333;28;20180;-59
2022/05/02 09:07:21;;;;;;;6.15;4.90;;;;;;;16.01;56.86;94695.69;5073285;28;20205;-61
2022/05/02 09:10:10;;;;;;;4.93;4.28;;;;;;;15.91;56.53;94685.59;5073291;28;20192;-61
2022/05/02 09:13:00;;;;;;;7.25;5.50;;;;;;;16.00;58.27;94637.66;5073636;28;20690;-60
2022/05/02 09:16:03;;;;;;;9.20;4.63;;;;;;;16.38;58.46;94641.25;5069234;28;20181;-60
2022/05/02 09:18:46;;;;;;;5.28;3.78;;;;;;;16.85;57.81;94651.53;5054066;28;20769;-62
2022/05/02 09:21:31;;;;;;;6.22;3.30;;;;;;;17.06;53.32;94741.66;5055006;28;20276;-60
2022/05/02 09:24:13;;;;;;;3.67;3.38;;;;;;;17.12;52.87;94728.94;5073337;28;20709;-60
2022/05/02 09:27:05;;;;;;;3.60;3.30;;;;;;;17.19;48.54;94801.81;5073700;28;20204;-60
2022/05/02 09:30:01;;;;;;;4.00;3.70;;;;;;;17.35;52.19;94680.94;5072150;28;20205;-60
2022/05/02 09:32:49;;;;;;;6.22;3.95;;;;;;;17.46;50.09;94705.47;5073078;28;20545;-58
2022/05/02 09:35:22;;;;;;;5.38;3.80;;;;;;;17.49;50.83;94674.31;5071981;28;20184;-61
2022/05/02 09:37:56;;;;;;;4.07;3.78;;;;;;;17.53;48.16;94699.50;5072447;28;20210;-61
2022/05/02 09:40:29;;;;;;;4.13;3.72;;;;;;;17.55;50.47;94589.59;5073066;28;20555;-59
2022/05/02 09:43:00;;;;;;;4.82;4.05;;;;;;;17.57;47.89;94630.56;5073471;28;20228;-59
2022/05/02 09:51:49;;;;;;;2.60;2.28;;;;;;;17.10;45.14;94638.41;5072834;28;20275;-63
2022/05/02 09:57:33;;;;;;;3.30;3.00;;;;;;;16.91;46.63;94584.09;5041334;28;20237;-63
2022/05/02 10:02:54;;;;;;;3.10;2.90;;;;;;;17.43;48.34;94542.09;5073059;28;20208;-61
2022/05/02 10:05:29;;;;;;;4.90;3.35;;;;;;;17.37;46.58;94599.34;5054536;28;20541;-63
2022/05/02 10:08:09;;;;;;;3.50;3.17;;;;;;;17.32;48.84;94519.41;5072901;28;20204;-63
2022/05/02 10:10:42;;;;;;;4.03;3.63;;;;;;;17.16;47.33;94557.28;5072345;28;20173;-63
2022/05/02 10:13:32;;;;;;;5.05;3.88;;;;;;;17.41;48.13;94535.56;5072168;28;20223;-62
2022/05/02 10:16:09;;;;;;;4.95;3.92;;;;;;;17.49;48.85;94513.16;5054070;28;20747;-62
2022/05/02 10:18:58;;;;;;;6.95;3.90;;;;;;;17.51;48.12;94542.06;5072201;28;20197;-62
2022/05/02 10:21:38;;;;;;;4.38;3.47;;;;;;;17.58;46.68;94573.81;5058296;28;20177;-60
2022/05/02 10:24:19;;;;;;;3.83;3.10;;;;;;;17.71;46.19;94572.44;5054183;28;20555;-59
2022/05/02 10:27:05;;;;;;;6.25;3.80;;;;;;;17.54;47.68;94526.31;5053319;28;20277;-59
2022/05/02 10:29:51;;;;;;;3.10;2.85;;;;;;;17.37;46.20;94552.31;5072067;28;20184;-61
2022/05/02 10:32:31;;;;;;;4.53;3.38;;;;;;;17.36;47.49;94527.56;5072137;28;20265;-60
2022/05/02 10:35:00;;;;;;;5.68;2.65;;;;;;;17.32;47.83;94482.63;5071799;28;20172;-61
2022/05/02 10:37:32;;;;;;;2.05;1.90;;;;;;;17.20;43.31;94609.91;5071633;28;20219;-62
2022/05/02 10:40:10;;;;;;;2.58;2.22;;;;;;;17.08;45.28;94545.28;5071393;28;20177;-60
2022/05/02 10:42:38;;;;;;;6.70;3.40;;;;;;;17.19;45.08;94546.66;5072122;28;20638;-61
2022/05/02 10:45:09;;;;;;;3.90;2.83;;;;;;;17.25;47.64;94486.88;5071955;28;20196;-61
2022/05/02 10:47:54;;;;;;;8.15;2.20;;;;;;;17.26;45.07;94555.25;5072294;28;20692;-60
2022/05/02 10:50:27;;;;;;;3.30;3.00;;;;;;;17.31;49.34;94450.22;5053057;28;20172;-60
2022/05/02 10:53:11;;;;;;;4.32;3.10;;;;;;;17.34;49.41;94449.84;5071500;28;20722;-61
2022/05/02 10:56:13;;;;;;;2.42;2.22;;;;;;;17.62;47.09;94515.13;5052532;28;20273;-60
2022/05/02 10:58:43;;;;;;;6.05;2.67;;;;;;;17.82;47.73;94475.06;5071851;28;20233;-61
2022/05/02 11:01:15;;;;;;;3.10;2.83;;;;;;;17.69;45.07;94548.66;5071736;28;20210;-63
2022/05/02 11:04:10;;;;;;;12.02;2.60;;;;;;;17.77;46.38;94507.44;5071676;28;20169;-60
2022/05/02 11:07:07;;;;;;;5.65;2.63;;;;;;;17.91;47.70;94475.78;5052664;28;20573;-60
2022/05/02 11:09:43;;;;;;;4.28;3.00;;;;;;;17.86;49.38;94448.00;5072482;28;20288;-61
2022/05/02 11:12:14;;;;;;;4.97;2.63;;;;;;;17.83;47.71;94481.81;5072069;28;20196;-61
2022/05/02 11:14:58;;;;;;;2.78;2.05;;;;;;;17.70;48.04;94476.47;5071463;28;20173;-60
2022/05/02 11:17:40;;;;;;;3.28;2.20;;;;;;;17.86;48.81;94450.59;5071914;28;20197;-61
2022/05/02 11:23:17;;;;;;;4.75;2.80;;;;;;;17.93;50.51;94425.75;5072129;28;20212;-62
2022/05/02 11:26:13;;;;;;;4.22;2.60;;;;;;;17.66;50.61;94423.81;5069601;28;20423;-63
2022/05/02 11:29:11;;;;;;;7.20;3.05;;;;;;;17.61;51.66;94405.56;5071544;28;20735;-64
2022/05/02 11:31:45;;;;;;;3.13;2.72;;;;;;;17.51;51.04;94421.25;5071627;28;20208;-62
2022/05/02 11:34:38;;;;;;;3.45;3.15;;;;;;;17.19;50.53;94433.63;5071344;28;20177;-62
2022/05/02 11:37:37;;;;;;;3.70;2.83;;;;;;;17.02;52.62;94401.34;5053410;28;20581;-62
2022/05/02 11:40:10;;;;;;;4.00;2.67;;;;;;;16.69;54.15;94362.31;5054248;28;20559;-62
2022/05/02 11:42:42;;;;;;;3.42;2.63;;;;;;;16.46;55.03;94352.03;5071601;28;20215;-62
2022/05/02 11:45:17;;;;;;;4.55;2.50;;;;;;;16.52;53.92;94371.13;5071381;28;20165;-62
2022/05/02 11:47:54;;;;;;;4.32;3.17;;;;;;;16.58;54.47;94375.59;5071718;28;20208;-63
2022/05/02 11:50:24;;;;;;;3.38;2.85;;;;;;;16.51;53.44;94390.84;5071292;28;20260;-59
2022/05/02 11:53:08;;;;;;;3.50;2.70;;;;;;;16.50;52.65;94407.22;5074316;28;20196;-60
2022/05/02 11:55:36;;;;;;;5.00;3.42;;;;;;;16.46;53.25;94387.97;5055163;28;20179;-58
2022/05/02 11:58:23;;;;;;;5.22;2.58;;;;;;;16.43;52.65;94388.31;5074023;28;20209;-61
2022/05/02 12:00:52;;;;;;;4.88;2.70;;;;;;;16.25;52.54;94390.38;5074819;28;20161;-62
2022/05/02 12:03:23;;;;;;;3.83;2.53;;;;;;;16.14;52.76;94390.75;5075086;28;20226;-60
2022/05/02 12:05:57;;;;;;;2.72;2.50;;;;;;;16.12;51.69;94404.75;5074907;28;20181;-62
2022/05/02 12:08:37;;;;;;;5.57;3.00;;;;;;;16.18;52.72;94383.53;5074695;28;20295;-60
2022/05/02 12:11:10;;;;;;;3.72;3.30;;;;;;;16.15;53.79;94369.28;5074874;28;20177;-59
2022/05/02 12:13:44;;;;;;;5.63;3.42;;;;;;;16.26;53.41;94366.31;5074554;28;20212;-63
2022/05/02 12:16:11;;;;;;;8.32;3.60;;;;;;;16.27;53.81;94365.34;5081897;22;20701;-60
2022/05/02 12:18:41;;;;;;;10.82;3.38;;;;;;;16.08;53.80;94357.31;5052389;28;20176;-64
2022/05/02 12:21:08;;;;;;;6.65;3.20;;;;;;;16.16;53.44;94360.59;5054532;28;20186;-60
2022/05/02 12:23:36;;;;;;;3.55;3.25;;;;;;;16.11;53.87;94351.84;5054350;28;20206;-59
2022/05/02 12:26:05;;;;;;;4.90;3.45;;;;;;;16.05;54.49;94353.31;5054150;28;20260;-60
2022/05/02 12:28:42;;;;;;;7.00;3.78;;;;;;;16.20;54.55;94359.28;5054174;28;20206;-59
2022/05/02 12:31:11;;;;;;;4.00;3.53;;;;;;;16.23;54.33;94358.97;5054217;28;20209;-62
2022/05/02 12:33:40;;;;;;;6.15;3.35;;;;;;;16.24;53.32;94373.38;5054207;28;20599;-61
2022/05/02 12:36:19;;;;;;;3.45;2.80;;;;;;;16.26;53.96;94355.28;5054260;28;20235;-62